Time;durP1;ratioP1;P1;durP2;ratioP2;P2;SDS_P1;SDS_P2;PMS_P1;PMS_P2;Temp;Humidity;BMP_temperature;BMP_pressure;BME280_temperature;BME280_humidity;BME280_pressure;Samples;Min_cycle;Max_cycle;Signal;HPM_P1;HPM_P2
2024/04/07 00:00:21;;;;;;;8.15;3.05;;;;;;;;;;5050557;28;20043;-60
2024/04/07 00:02:47;;;;;;;6.30;3.30;;;;;;;;;;5050463;28;20056;-56
2024/04/07 00:05:15;;;;;;;6.18;3.35;;;;;;;;;;5050945;28;20440;-57
2024/04/07 00:07:40;;;;;;;5.47;3.55;;;;;;;;;;5056594;28;20405;-56
2024/04/07 00:10:09;;;;;;;5.80;3.35;;;;;;;;;;5050174;28;20045;-55
2024/04/07 00:12:35;;;;;;;5.30;3.35;;;;;;;;;;5046949;28;20053;-57
2024/04/07 00:15:02;;;;;;;6.63;3.72;;;;;;;;;;5048597;28;20492;-58
2024/04/07 00:17:28;;;;;;;7.30;3.95;;;;;;;;;;5044426;28;20049;-56
2024/04/07 00:19:56;;;;;;;7.25;3.35;;;;;;;;;;5041840;28;20049;-56
2024/04/07 00:22:23;;;;;;;6.07;3.38;;;;;;;;;;5050745;28;20053;-57
2024/04/07 00:24:50;;;;;;;5.30;3.20;;;;;;;;;;5052127;28;20048;-56
2024/04/07 00:27:18;;;;;;;5.05;2.72;;;;;;;;;;5052231;28;20080;-57
2024/04/07 00:29:45;;;;;;;6.10;2.88;;;;;;;;;;5056995;28;20106;-54
2024/04/07 00:32:11;;;;;;;6.45;2.92;;;;;;;;;;5062837;28;20044;-57
2024/04/07 00:34:39;;;;;;;5.45;3.17;;;;;;;;;;5074044;28;20052;-57
2024/04/07 00:37:05;;;;;;;4.72;2.53;;;;;;;;;;5074105;28;20393;-57
2024/04/07 00:39:32;;;;;;;4.82;2.88;;;;;;;;;;5074234;28;20051;-52
2024/04/07 00:41:58;;;;;;;6.78;3.33;;;;;;;;;;5070120;28;20068;-57
2024/04/07 00:44:26;;;;;;;5.43;2.90;;;;;;;;;;5072848;28;20048;-56
2024/04/07 00:46:52;;;;;;;5.20;2.90;;;;;;;;;;5065754;28;20087;-57
2024/04/07 00:49:20;;;;;;;5.35;2.83;;;;;;;;;;5052240;28;20139;-56
2024/04/07 00:51:46;;;;;;;4.55;2.58;;;;;;;;;;5061196;28;20488;-55
2024/04/07 00:54:13;;;;;;;5.65;2.88;;;;;;;;;;5058300;28;20041;-56
2024/04/07 00:56:39;;;;;;;5.25;3.00;;;;;;;;;;5059063;28;20049;-58
2024/04/07 00:59:07;;;;;;;5.57;3.15;;;;;;;;;;5058181;28;20393;-56
2024/04/07 01:01:34;;;;;;;4.80;3.25;;;;;;;;;;5066088;28;20048;-57
2024/04/07 01:04:02;;;;;;;4.85;3.40;;;;;;;;;;5065513;28;20067;-56
2024/04/07 01:06:28;;;;;;;6.60;3.55;;;;;;;;;;5056765;28;20056;-58
2024/04/07 01:08:56;;;;;;;7.43;5.22;;;;;;;;;;5073958;28;20557;-57
2024/04/07 01:11:26;;;;;;;12.45;7.82;;;;;;;;;;5073779;28;20464;-56
2024/04/07 01:13:52;;;;;;;10.18;7.90;;;;;;;;;;5066777;28;20045;-54
2024/04/07 01:16:19;;;;;;;10.23;7.38;;;;;;;;;;5055037;28;20049;-54
2024/04/07 01:18:47;;;;;;;12.80;7.88;;;;;;;;;;5052226;28;20133;-58
2024/04/07 01:21:13;;;;;;;9.15;7.22;;;;;;;;;;5070647;28;20490;-57
2024/04/07 01:23:41;;;;;;;8.25;6.20;;;;;;;;;;5073070;28;20044;-56
2024/04/07 01:26:07;;;;;;;8.23;5.78;;;;;;;;;;5073059;28;20056;-56
2024/04/07 01:28:34;;;;;;;8.88;5.90;;;;;;;;;;5073316;28;20048;-57
2024/04/07 01:31:01;;;;;;;8.23;5.68;;;;;;;;;;5065975;28;20049;-58
2024/04/07 01:33:28;;;;;;;7.53;5.68;;;;;;;;;;5072847;28;20055;-57
2024/04/07 01:35:54;;;;;;;8.75;5.40;;;;;;;;;;5073043;28;20056;-58
2024/04/07 01:38:21;;;;;;;7.13;5.43;;;;;;;;;;5073206;28;20345;-56
2024/04/07 01:40:50;;;;;;;7.75;5.35;;;;;;;;;;5073256;28;20048;-57
2024/04/07 01:43:17;;;;;;;6.45;4.55;;;;;;;;;;5055746;28;20044;-55
2024/04/07 01:45:43;;;;;;;8.52;4.82;;;;;;;;;;5045372;28;20138;-57
2024/04/07 01:48:11;;;;;;;9.30;5.15;;;;;;;;;;5053116;28;20045;-57
2024/04/07 01:50:37;;;;;;;7.57;5.65;;;;;;;;;;5043885;28;20096;-53
2024/04/07 01:53:04;;;;;;;8.48;5.57;;;;;;;;;;5049331;28;20106;-55
2024/04/07 01:55:30;;;;;;;7.35;5.40;;;;;;;;;;5049670;28;20044;-54
2024/04/07 01:57:59;;;;;;;7.00;5.03;;;;;;;;;;5052905;28;20530;-57
2024/04/07 02:00:25;;;;;;;7.00;4.75;;;;;;;;;;5049638;28;20045;-58
2024/04/07 02:02:52;;;;;;;9.57;5.95;;;;;;;;;;5053000;28;20136;-58
2024/04/07 02:05:18;;;;;;;15.25;11.25;;;;;;;;;;5052301;28;20047;-57
2024/04/07 02:07:45;;;;;;;9.05;4.95;;;;;;;;;;5058279;28;20049;-57
2024/04/07 02:10:11;;;;;;;7.80;4.07;;;;;;;;;;5053345;28;20076;-56
2024/04/07 02:12:38;;;;;;;6.38;3.83;;;;;;;;;;5050729;28;20080;-56
2024/04/07 02:15:06;;;;;;;7.55;3.60;;;;;;;;;;5049443;28;20049;-57
2024/04/07 02:17:34;;;;;;;6.50;3.80;;;;;;;;;;5060713;28;20075;-55
2024/04/07 02:20:00;;;;;;;5.43;3.58;;;;;;;;;;5051038;28;20056;-53
2024/04/07 02:22:27;;;;;;;6.13;4.20;;;;;;;;;;5054612;28;20041;-54
2024/04/07 02:24:53;;;;;;;5.65;3.47;;;;;;;;;;5049079;28;20520;-57
2024/04/07 02:27:20;;;;;;;6.10;3.50;;;;;;;;;;5052172;28;20048;-58
2024/04/07 02:29:46;;;;;;;5.38;3.60;;;;;;;;;;5051247;28;20084;-57
2024/04/07 02:32:14;;;;;;;5.72;3.20;;;;;;;;;;5052349;28;20077;-56
2024/04/07 02:34:40;;;;;;;6.05;3.53;;;;;;;;;;5071944;28;20074;-55
2024/04/07 02:37:08;;;;;;;4.80;3.30;;;;;;;;;;5063665;28;20132;-56
2024/04/07 02:39:33;;;;;;;6.82;3.33;;;;;;;;;;5055497;28;20055;-54
2024/04/07 02:42:00;;;;;;;4.85;3.00;;;;;;;;;;5071763;28;20124;-58
2024/04/07 02:49:54;;;;;;;5.88;3.75;;;;;;;;;;5060471;28;20052;-56
2024/04/07 02:52:21;;;;;;;4.90;2.85;;;;;;;;;;5063682;28;20508;-55
2024/04/07 02:54:48;;;;;;;4.45;2.50;;;;;;;;;;5060388;28;20048;-56
2024/04/07 02:57:15;;;;;;;4.50;2.80;;;;;;;;;;5050001;28;20045;-56
2024/04/07 02:59:40;;;;;;;3.95;2.33;;;;;;;;;;5051752;28;20428;-56
2024/04/07 03:02:07;;;;;;;4.50;2.22;;;;;;;;;;5048918;28;20053;-57
2024/04/07 03:04:33;;;;;;;4.10;2.70;;;;;;;;;;5051761;28;20128;-57
2024/04/07 03:07:03;;;;;;;4.45;2.42;;;;;;;;;;5048493;28;20103;-53
2024/04/07 03:09:29;;;;;;;5.63;2.90;;;;;;;;;;5043533;28;20511;-53
2024/04/07 03:11:56;;;;;;;6.95;3.00;;;;;;;;;;5041609;28;20076;-57
2024/04/07 03:14:22;;;;;;;5.20;2.50;;;;;;;;;;5052391;28;20533;-58
2024/04/07 03:16:49;;;;;;;4.03;2.35;;;;;;;;;;5050355;28;20068;-58
2024/04/07 03:19:14;;;;;;;4.75;2.40;;;;;;;;;;5059081;28;20045;-57
2024/04/07 03:21:41;;;;;;;5.07;2.10;;;;;;;;;;5046382;28;20044;-54
2024/04/07 03:24:09;;;;;;;4.13;2.13;;;;;;;;;;5051645;28;20123;-55
2024/04/07 03:26:36;;;;;;;4.10;2.47;;;;;;;;;;5045172;28;20080;-56
2024/04/07 03:29:01;;;;;;;4.93;2.35;;;;;;;;;;5050120;28;20045;-57
2024/04/07 03:31:29;;;;;;;4.10;2.03;;;;;;;;;;5050027;28;20048;-55
2024/04/07 03:33:54;;;;;;;3.75;2.20;;;;;;;;;;5044588;28;20158;-58
2024/04/07 03:36:21;;;;;;;3.92;2.40;;;;;;;;;;5047949;28;20049;-57
2024/04/07 03:38:48;;;;;;;4.40;2.10;;;;;;;;;;5050889;28;20422;-58
2024/04/07 03:41:17;;;;;;;4.47;2.45;;;;;;;;;;5060335;28;20071;-57
2024/04/07 03:43:44;;;;;;;4.00;2.05;;;;;;;;;;5053533;28;20049;-57
2024/04/07 03:46:11;;;;;;;4.28;2.45;;;;;;;;;;5061362;28;20500;-56
2024/04/07 03:48:37;;;;;;;3.72;2.30;;;;;;;;;;5062170;28;20052;-56
2024/04/07 03:51:06;;;;;;;3.72;2.10;;;;;;;;;;5050855;28;20114;-57
2024/04/07 03:53:32;;;;;;;4.82;2.25;;;;;;;;;;5062777;28;20057;-56
2024/04/07 03:56:00;;;;;;;4.68;2.20;;;;;;;;;;5058641;28;20048;-57
2024/04/07 03:58:28;;;;;;;5.18;2.25;;;;;;;;;;5055266;28;20060;-57
2024/04/07 04:00:54;;;;;;;3.67;1.95;;;;;;;;;;5054577;28;20669;-57
2024/04/07 04:03:21;;;;;;;4.15;2.20;;;;;;;;;;5051797;28;20057;-56
2024/04/07 04:05:53;;;;;;;3.30;1.98;;;;;;;;;;5059602;28;20052;-56
2024/04/07 04:08:20;;;;;;;3.15;1.70;;;;;;;;;;5066735;28;20063;-57
2024/04/07 04:10:46;;;;;;;5.25;2.50;;;;;;;;;;5064914;28;20055;-54
2024/04/07 04:13:13;;;;;;;3.72;2.20;;;;;;;;;;5074503;28;20052;-55
2024/04/07 04:15:40;;;;;;;4.65;2.00;;;;;;;;;;5074411;28;20048;-55
2024/04/07 04:18:08;;;;;;;4.03;2.33;;;;;;;;;;5057636;28;20048;-52
2024/04/07 04:20:38;;;;;;;4.38;2.00;;;;;;;;;;5042627;28;20075;-53
2024/04/07 04:23:05;;;;;;;2.95;1.77;;;;;;;;;;5053445;28;20074;-53
2024/04/07 04:25:31;;;;;;;3.08;1.67;;;;;;;;;;5065976;28;20056;-54
2024/04/07 04:27:58;;;;;;;3.53;2.03;;;;;;;;;;5060761;28;20049;-58
2024/04/07 04:30:24;;;;;;;3.70;2.00;;;;;;;;;;5073193;28;20056;-50
2024/04/07 04:32:53;;;;;;;3.05;1.77;;;;;;;;;;5074386;28;20514;-56
2024/04/07 04:35:19;;;;;;;3.90;1.70;;;;;;;;;;5073928;28;20110;-54
2024/04/07 04:37:46;;;;;;;3.10;1.77;;;;;;;;;;5062235;28;20041;-51
2024/04/07 04:40:12;;;;;;;3.08;1.67;;;;;;;;;;5062490;28;20402;-54
2024/04/07 04:42:39;;;;;;;5.13;1.85;;;;;;;;;;5050863;28;20048;-57
2024/04/07 04:45:06;;;;;;;3.05;1.63;;;;;;;;;;5056060;28;20064;-57
2024/04/07 04:47:33;;;;;;;2.92;1.77;;;;;;;;;;5048821;28;20079;-57
2024/04/07 04:50:00;;;;;;;4.22;1.80;;;;;;;;;;5052145;28;20057;-54
2024/04/07 04:52:29;;;;;;;3.95;1.42;;;;;;;;;;5049010;28;20592;-57
2024/04/07 04:54:56;;;;;;;4.40;1.80;;;;;;;;;;5057187;28;20057;-58
2024/04/07 04:57:23;;;;;;;3.40;1.63;;;;;;;;;;5055635;28;20127;-55
2024/04/07 04:59:51;;;;;;;3.75;1.83;;;;;;;;;;5050397;28;20049;-57
2024/04/07 05:02:18;;;;;;;4.65;1.65;;;;;;;;;;5052167;28;20044;-57
2024/04/07 05:04:45;;;;;;;10.27;2.00;;;;;;;;;;5053313;28;20067;-57
2024/04/07 05:07:13;;;;;;;3.78;1.67;;;;;;;;;;5062204;28;20048;-57
2024/04/07 05:09:39;;;;;;;4.25;1.58;;;;;;;;;;5068785;28;20052;-57
2024/04/07 05:12:06;;;;;;;3.63;1.55;;;;;;;;;;5066760;28;20427;-52
2024/04/07 05:14:32;;;;;;;2.80;1.58;;;;;;;;;;5065972;28;20428;-54
2024/04/07 05:16:59;;;;;;;3.17;1.63;;;;;;;;;;5055096;28;20052;-56
2024/04/07 05:19:25;;;;;;;3.30;1.50;;;;;;;;;;5048478;28;20080;-56
2024/04/07 05:21:52;;;;;;;3.55;1.60;;;;;;;;;;5044470;28;20064;-57
2024/04/07 05:24:21;;;;;;;3.33;1.65;;;;;;;;;;5059380;28;20053;-53
2024/04/07 05:26:48;;;;;;;3.28;1.80;;;;;;;;;;5053325;28;20049;-51
2024/04/07 05:29:14;;;;;;;2.63;1.50;;;;;;;;;;5054457;28;20059;-57
2024/04/07 05:31:42;;;;;;;3.90;1.50;;;;;;;;;;5056170;28;20041;-51
2024/04/07 05:34:07;;;;;;;7.32;1.60;;;;;;;;;;5059985;28;20048;-57
2024/04/07 05:36:35;;;;;;;2.20;1.35;;;;;;;;;;5043571;28;20206;-57
2024/04/07 05:39:01;;;;;;;2.83;1.58;;;;;;;;;;5041725;28;20085;-56
2024/04/07 05:41:29;;;;;;;5.13;2.10;;;;;;;;;;5053566;28;20061;-57
2024/04/07 05:43:55;;;;;;;3.25;1.70;;;;;;;;;;5055184;28;20044;-57
2024/04/07 05:46:23;;;;;;;3.90;1.80;;;;;;;;;;5046364;28;20091;-57
2024/04/07 05:48:49;;;;;;;3.78;1.80;;;;;;;;;;5040864;28;20056;-60
2024/04/07 05:51:17;;;;;;;4.03;1.95;;;;;;;;;;5042635;28;20045;-59
2024/04/07 05:53:43;;;;;;;3.05;1.60;;;;;;;;;;5047138;28;20493;-60
2024/04/07 05:56:14;;;;;;;3.58;1.65;;;;;;;;;;5046052;28;20472;-60
2024/04/07 05:58:41;;;;;;;4.35;1.77;;;;;;;;;;5052543;28;20087;-63
2024/04/07 06:01:08;;;;;;;3.03;1.42;;;;;;;;;;5052127;28;20055;-62
2024/04/07 06:03:34;;;;;;;4.20;1.90;;;;;;;;;;5041913;28;20049;-58
2024/04/07 06:06:02;;;;;;;4.55;2.17;;;;;;;;;;5043397;28;20044;-59
2024/04/07 06:08:28;;;;;;;6.55;2.70;;;;;;;;;;5048524;28;20068;-58
2024/04/07 06:10:55;;;;;;;9.50;4.25;;;;;;;;;;5048471;28;20587;-59
2024/04/07 06:13:21;;;;;;;8.52;4.13;;;;;;;;;;5056454;28;20060;-55
2024/04/07 06:15:49;;;;;;;4.22;1.80;;;;;;;;;;5048145;28;20041;-55
2024/04/07 06:18:15;;;;;;;3.88;2.10;;;;;;;;;;5050441;28;20072;-57
2024/04/07 06:20:43;;;;;;;7.20;2.85;;;;;;;;;;5052827;28;20496;-57
2024/04/07 06:23:09;;;;;;;4.95;2.20;;;;;;;;;;5047105;28;20045;-59
2024/04/07 06:25:35;;;;;;;15.02;5.28;;;;;;;;;;5064037;28;20063;-60
2024/04/07 06:28:02;;;;;;;11.43;4.75;;;;;;;;;;5065579;28;20492;-57
2024/04/07 06:30:29;;;;;;;6.88;2.15;;;;;;;;;;5063200;28;20516;-54
2024/04/07 06:32:56;;;;;;;7.47;2.47;;;;;;;;;;5072529;28;20455;-53
2024/04/07 06:35:23;;;;;;;12.10;5.80;;;;;;;;;;5068523;28;20079;-56
2024/04/07 06:37:49;;;;;;;18.02;7.15;;;;;;;;;;5071693;28;20051;-58
2024/04/07 06:40:16;;;;;;;12.38;4.88;;;;;;;;;;5062293;28;20637;-58
2024/04/07 06:42:42;;;;;;;6.68;2.80;;;;;;;;;;5069137;28;20075;-59
2024/04/07 06:45:09;;;;;;;5.57;2.22;;;;;;;;;;5063140;28;20049;-56
2024/04/07 06:47:35;;;;;;;21.45;6.05;;;;;;;;;;5068910;28;20048;-58
2024/04/07 06:50:03;;;;;;;7.95;2.83;;;;;;;;;;5058305;28;20515;-58
2024/04/07 06:52:29;;;;;;;9.35;2.72;;;;;;;;;;5052326;28;20049;-56
2024/04/07 06:54:56;;;;;;;22.42;6.35;;;;;;;;;;5038840;28;20515;-58
2024/04/07 06:57:22;;;;;;;11.82;3.78;;;;;;;;;;5047007;28;20049;-58
2024/04/07 06:59:51;;;;;;;2.63;1.45;;;;;;;;;;5051834;28;20106;-58
2024/04/07 07:02:17;;;;;;;3.25;1.50;;;;;;;;;;5051822;28;20084;-58
2024/04/07 07:04:44;;;;;;;10.60;3.22;;;;;;;;;;5051732;28;20049;-58
2024/04/07 07:07:11;;;;;;;7.80;2.78;;;;;;;;;;5051804;28;20053;-58
2024/04/07 07:09:38;;;;;;;6.38;2.05;;;;;;;;;;5059599;28;20095;-57
2024/04/07 07:12:05;;;;;;;5.00;1.90;;;;;;;;;;5067353;28;20049;-58
2024/04/07 07:14:31;;;;;;;4.30;2.20;;;;;;;;;;5071821;28;20561;-58
2024/04/07 07:16:57;;;;;;;2.97;1.52;;;;;;;;;;5056684;28;20149;-59
2024/04/07 07:19:24;;;;;;;4.68;1.65;;;;;;;;;;5051080;28;20135;-61
2024/04/07 07:21:51;;;;;;;3.10;1.30;;;;;;;;;;5046153;28;20129;-58
2024/04/07 07:24:19;;;;;;;3.88;1.88;;;;;;;;;;5050375;28;20041;-59
2024/04/07 07:26:45;;;;;;;5.20;2.10;;;;;;;;;;5050423;28;20056;-58
2024/04/07 07:29:12;;;;;;;4.85;2.50;;;;;;;;;;5040245;28;20488;-59
2024/04/07 07:31:38;;;;;;;4.78;2.58;;;;;;;;;;5047765;28;20462;-55
2024/04/07 07:34:05;;;;;;;4.07;2.35;;;;;;;;;;5047273;28;20052;-55
2024/04/07 07:36:31;;;;;;;5.60;2.97;;;;;;;;;;5043979;28;20052;-59
2024/04/07 07:38:58;;;;;;;5.90;2.80;;;;;;;;;;5054250;28;20045;-58
2024/04/07 07:41:25;;;;;;;4.97;2.88;;;;;;;;;;5042951;28;20053;-59
2024/04/07 07:43:52;;;;;;;4.90;2.50;;;;;;;;;;5045011;28;20112;-59
2024/04/07 07:46:18;;;;;;;4.13;2.50;;;;;;;;;;5051891;28;20045;-57
2024/04/07 07:48:45;;;;;;;4.25;2.47;;;;;;;;;;5058406;28;20051;-58
2024/04/07 07:51:12;;;;;;;4.03;2.33;;;;;;;;;;5042290;28;20053;-59
2024/04/07 07:53:39;;;;;;;5.13;2.20;;;;;;;;;;5046632;28;20489;-58
2024/04/07 07:56:06;;;;;;;3.88;2.05;;;;;;;;;;5045619;28;20053;-58
2024/04/07 07:58:36;;;;;;;4.40;2.45;;;;;;;;;;5050976;28;20465;-59
2024/04/07 08:01:02;;;;;;;4.32;2.15;;;;;;;;;;5050964;28;20049;-59
2024/04/07 08:03:29;;;;;;;4.88;2.03;;;;;;;;;;5050540;28;20056;-58
2024/04/07 08:05:55;;;;;;;4.15;2.17;;;;;;;;;;5045590;28;20478;-58
2024/04/07 08:08:22;;;;;;;3.50;2.00;;;;;;;;;;5048411;28;20079;-57
2024/04/07 08:10:48;;;;;;;3.70;1.77;;;;;;;;;;5039988;28;20048;-57
2024/04/07 08:13:15;;;;;;;5.25;2.17;;;;;;;;;;5053271;28;20036;-57
2024/04/07 08:15:45;;;;;;;5.45;2.33;;;;;;;;;;5044930;28;20040;-57
2024/04/07 08:18:12;;;;;;;4.32;1.80;;;;;;;;;;5042106;28;20049;-57
2024/04/07 08:20:40;;;;;;;5.05;2.08;;;;;;;;;;5048900;28;20055;-55
2024/04/07 08:23:07;;;;;;;4.15;2.17;;;;;;;;;;5060902;28;20055;-58
2024/04/07 08:25:34;;;;;;;3.65;1.80;;;;;;;;;;5036860;28;20052;-59
2024/04/07 08:28:01;;;;;;;3.42;1.70;;;;;;;;;;5050473;28;20564;-59
2024/04/07 08:30:27;;;;;;;3.97;2.00;;;;;;;;;;5043884;28;20099;-59
2024/04/07 08:32:57;;;;;;;4.57;1.88;;;;;;;;;;5045380;28;20298;-55
2024/04/07 08:35:23;;;;;;;3.80;1.60;;;;;;;;;;5042735;28;20053;-59
2024/04/07 08:37:50;;;;;;;4.38;1.80;;;;;;;;;;5050976;28;20056;-59
2024/04/07 08:40:16;;;;;;;4.55;1.70;;;;;;;;;;5050898;28;20049;-54
2024/04/07 08:42:44;;;;;;;3.80;1.50;;;;;;;;;;5050579;28;20045;-56
2024/04/07 08:45:11;;;;;;;3.05;1.58;;;;;;;;;;5053892;28;20057;-55
2024/04/07 08:47:39;;;;;;;3.75;1.50;;;;;;;;;;5049194;28;20053;-58
2024/04/07 08:50:09;;;;;;;3.10;1.63;;;;;;;;;;5051620;28;20116;-57
2024/04/07 08:52:37;;;;;;;3.42;1.70;;;;;;;;;;5046069;28;20140;-57
2024/04/07 08:55:05;;;;;;;4.60;1.80;;;;;;;;;;5053914;28;20098;-56
2024/04/07 08:57:31;;;;;;;3.78;1.63;;;;;;;;;;5054684;28;20102;-59
2024/04/07 09:00:00;;;;;;;3.03;1.40;;;;;;;;;;5060583;28;20614;-59
2024/04/07 09:02:30;;;;;;;3.78;1.77;;;;;;;;;;5055065;28;20056;-56
2024/04/07 09:04:58;;;;;;;5.68;1.55;;;;;;;;;;5052512;28;20057;-59
2024/04/07 09:07:25;;;;;;;4.40;1.40;;;;;;;;;;5053881;28;20128;-59
2024/04/07 09:09:52;;;;;;;3.33;1.58;;;;;;;;;;5053838;28;20056;-59
2024/04/07 09:12:18;;;;;;;4.82;1.60;;;;;;;;;;5050971;28;20481;-58
2024/04/07 09:14:48;;;;;;;3.60;1.50;;;;;;;;;;5054408;28;20051;-56
2024/04/07 09:17:14;;;;;;;3.83;1.30;;;;;;;;;;5048427;28;20488;-54
2024/04/07 09:19:41;;;;;;;4.70;1.60;;;;;;;;;;5054537;28;20041;-59
2024/04/07 09:22:08;;;;;;;4.55;1.27;;;;;;;;;;5054584;28;20041;-56
2024/04/07 09:24:38;;;;;;;6.32;1.35;;;;;;;;;;5045363;28;20127;-56
2024/04/07 09:27:06;;;;;;;4.30;1.27;;;;;;;;;;5048878;28;20045;-58
2024/04/07 09:29:35;;;;;;;3.85;1.50;;;;;;;;;;5053936;28;20080;-59
2024/04/07 09:32:01;;;;;;;6.00;2.90;;;;;;;;;;5049023;28;20049;-59
2024/04/07 09:34:31;;;;;;;4.93;1.08;;;;;;;;;;5046526;28;20080;-59
2024/04/07 09:36:59;;;;;;;3.17;1.33;;;;;;;;;;5042471;28;20076;-59
2024/04/07 09:39:26;;;;;;;5.03;1.75;;;;;;;;;;5048131;28;20057;-58
2024/04/07 09:41:54;;;;;;;3.90;1.40;;;;;;;;;;5052776;28;20041;-57
2024/04/07 09:44:21;;;;;;;4.65;1.52;;;;;;;;;;5053874;28;20049;-57
2024/04/07 09:46:48;;;;;;;3.15;1.55;;;;;;;;;;5053340;28;20519;-59
2024/04/07 09:49:15;;;;;;;5.07;1.67;;;;;;;;;;5062006;28;20044;-59
2024/04/07 09:51:42;;;;;;;7.13;1.92;;;;;;;;;;5057843;28;20045;-56
2024/04/07 09:54:16;;;;;;;4.35;1.55;;;;;;;;;;5047255;28;20432;-55
2024/04/07 09:56:43;;;;;;;12.18;2.55;;;;;;;;;;5053069;28;20086;-54
2024/04/07 09:59:13;;;;;;;4.45;1.65;;;;;;;;;;5053045;28;20049;-57
2024/04/07 10:01:39;;;;;;;3.70;1.50;;;;;;;;;;5045206;28;20053;-58
2024/04/07 10:04:07;;;;;;;5.90;1.48;;;;;;;;;;5053179;28;20051;-59
2024/04/07 10:06:34;;;;;;;5.68;1.60;;;;;;;;;;5053154;28;20045;-57
2024/04/07 10:09:03;;;;;;;6.50;1.90;;;;;;;;;;5052669;28;20053;-59
2024/04/07 10:11:29;;;;;;;5.70;1.73;;;;;;;;;;5064040;28;20079;-58
2024/04/07 10:13:56;;;;;;;7.93;2.03;;;;;;;;;;5058508;28;20079;-57
2024/04/07 10:16:24;;;;;;;9.88;2.50;;;;;;;;;;5052984;28;20060;-59
2024/04/07 10:18:51;;;;;;;9.65;2.20;;;;;;;;;;5046683;28;20053;-58
2024/04/07 10:21:17;;;;;;;6.40;1.70;;;;;;;;;;5052820;28;20052;-58
2024/04/07 10:23:44;;;;;;;8.68;2.40;;;;;;;;;;5052098;28;20048;-58
2024/04/07 10:26:10;;;;;;;9.00;2.20;;;;;;;;;;5052463;28;20049;-56
2024/04/07 10:28:53;;;;;;;9.82;1.92;;;;;;;;;;5047448;28;20144;-57
2024/04/07 10:31:25;;;;;;;8.10;2.28;;;;;;;;;;5054454;28;20045;-60
2024/04/07 10:33:52;;;;;;;8.65;2.50;;;;;;;;;;5050573;28;20051;-55
2024/04/07 10:36:20;;;;;;;8.15;1.80;;;;;;;;;;5054098;28;20060;-60
2024/04/07 10:38:50;;;;;;;8.23;1.60;;;;;;;;;;5044607;28;20057;-57
2024/04/07 10:41:17;;;;;;;9.00;2.10;;;;;;;;;;5039176;28;20128;-58
2024/04/07 10:43:45;;;;;;;6.97;1.65;;;;;;;;;;5048793;28;20423;-58
2024/04/07 10:46:11;;;;;;;10.52;1.90;;;;;;;;;;5039273;28;20069;-55
2024/04/07 10:48:40;;;;;;;8.57;2.15;;;;;;;;;;5036580;28;20129;-57
2024/04/07 10:51:06;;;;;;;13.93;2.60;;;;;;;;;;5043491;28;20049;-59
2024/04/07 10:53:33;;;;;;;7.63;1.83;;;;;;;;;;5052199;28;20045;-59
2024/04/07 10:56:01;;;;;;;9.93;2.25;;;;;;;;;;5045290;28;20071;-59
2024/04/07 10:58:28;;;;;;;7.57;2.30;;;;;;;;;;5051511;28;20088;-60
2024/04/07 11:00:53;;;;;;;7.82;2.28;;;;;;;;;;5050088;28;20106;-60
2024/04/07 11:03:22;;;;;;;10.57;2.38;;;;;;;;;;5054034;28;20045;-59
2024/04/07 11:05:50;;;;;;;9.27;2.95;;;;;;;;;;5047562;28;20048;-58
2024/04/07 11:08:17;;;;;;;8.57;2.47;;;;;;;;;;5053758;28;20135;-58
2024/04/07 11:10:49;;;;;;;7.95;2.22;;;;;;;;;;5053562;28;20045;-58
2024/04/07 11:13:17;;;;;;;9.38;2.35;;;;;;;;;;5055320;28;20041;-57
2024/04/07 11:15:43;;;;;;;10.57;2.85;;;;;;;;;;5053070;28;20049;-57
2024/04/07 11:18:14;;;;;;;11.27;1.95;;;;;;;;;;5053265;28;20056;-58
2024/04/07 11:20:40;;;;;;;9.10;2.60;;;;;;;;;;5052107;28;20055;-59
2024/04/07 11:23:10;;;;;;;8.20;2.65;;;;;;;;;;5052648;28;20095;-59
2024/04/07 11:25:38;;;;;;;11.13;2.28;;;;;;;;;;5048873;28;20059;-59
2024/04/07 11:28:05;;;;;;;13.93;2.45;;;;;;;;;;5046612;28;20053;-57
2024/04/07 11:30:33;;;;;;;13.80;2.42;;;;;;;;;;5051229;28;20140;-56
2024/04/07 11:33:02;;;;;;;10.98;2.22;;;;;;;;;;5052576;28;20077;-58
2024/04/07 11:35:28;;;;;;;9.00;2.63;;;;;;;;;;5054357;28;20053;-59
2024/04/07 11:37:55;;;;;;;9.13;2.28;;;;;;;;;;5048409;28;20041;-59
2024/04/07 11:40:23;;;;;;;11.82;2.40;;;;;;;;;;5054102;28;20110;-58
2024/04/07 11:42:50;;;;;;;9.80;2.30;;;;;;;;;;5054575;28;20041;-60
2024/04/07 11:45:16;;;;;;;9.65;2.08;;;;;;;;;;5044644;28;20049;-60
2024/04/07 11:47:43;;;;;;;13.75;2.92;;;;;;;;;;5052951;28;20520;-58
2024/04/07 11:50:09;;;;;;;9.68;2.15;;;;;;;;;;5046870;28;20049;-59
2024/04/07 11:52:37;;;;;;;10.43;2.20;;;;;;;;;;5056025;28;20045;-60
2024/04/07 11:55:04;;;;;;;10.23;2.55;;;;;;;;;;5054400;28;20041;-59
2024/04/07 11:57:34;;;;;;;9.05;2.30;;;;;;;;;;5054849;28;20049;-58
2024/04/07 12:00:00;;;;;;;11.02;2.70;;;;;;;;;;5055019;28;20048;-58
2024/04/07 12:02:27;;;;;;;10.27;2.30;;;;;;;;;;5052509;28;20053;-53
2024/04/07 12:04:52;;;;;;;6.65;2.17;;;;;;;;;;5055500;28;20071;-55
2024/04/07 12:07:20;;;;;;;15.82;2.88;;;;;;;;;;5055763;28;20504;-57
2024/04/07 12:09:46;;;;;;;12.00;3.10;;;;;;;;;;5053219;28;20103;-56
2024/04/07 12:12:12;;;;;;;10.85;2.70;;;;;;;;;;5050663;28;20459;-56
2024/04/07 12:14:40;;;;;;;10.30;2.67;;;;;;;;;;5050395;28;20060;-58
2024/04/07 12:17:07;;;;;;;10.60;2.95;;;;;;;;;;5051086;28;20447;-58
2024/04/07 12:19:33;;;;;;;11.15;2.30;;;;;;;;;;5052616;28;20049;-59
2024/04/07 12:22:00;;;;;;;11.48;2.40;;;;;;;;;;5058963;28;20419;-59
2024/04/07 12:24:26;;;;;;;10.73;2.55;;;;;;;;;;5060389;28;20052;-59
2024/04/07 12:26:53;;;;;;;10.07;2.28;;;;;;;;;;5056515;28;20045;-58
2024/04/07 12:29:19;;;;;;;13.73;3.28;;;;;;;;;;5059923;28;20052;-59
2024/04/07 12:31:48;;;;;;;10.13;2.53;;;;;;;;;;5059729;28;20044;-58
2024/04/07 12:34:14;;;;;;;10.00;2.38;;;;;;;;;;5058952;28;20051;-58
2024/04/07 12:36:41;;;;;;;9.00;2.30;;;;;;;;;;5060578;28;20053;-58
2024/04/07 12:39:08;;;;;;;14.32;3.03;;;;;;;;;;5058706;28;20056;-59
2024/04/07 12:41:35;;;;;;;9.20;2.05;;;;;;;;;;5052961;28;20480;-59
2024/04/07 12:44:01;;;;;;;9.23;2.42;;;;;;;;;;5058540;28;20052;-57
2024/04/07 12:46:28;;;;;;;11.98;2.35;;;;;;;;;;5056295;28;20087;-58
2024/04/07 12:48:56;;;;;;;12.85;2.40;;;;;;;;;;5048242;28;20420;-59
2024/04/07 12:51:23;;;;;;;9.65;2.58;;;;;;;;;;5056357;28;20123;-59
2024/04/07 12:53:49;;;;;;;11.00;2.50;;;;;;;;;;5051208;28;20052;-58
2024/04/07 12:56:16;;;;;;;11.20;2.50;;;;;;;;;;5059088;28;20044;-59
2024/04/07 12:58:42;;;;;;;8.60;2.10;;;;;;;;;;5055036;28;20044;-59
2024/04/07 13:01:12;;;;;;;9.07;2.63;;;;;;;;;;5050459;28;20048;-59
2024/04/07 13:03:38;;;;;;;9.80;2.50;;;;;;;;;;5056465;28;20048;-59
2024/04/07 13:06:07;;;;;;;8.77;2.28;;;;;;;;;;5055857;28;20041;-59
2024/04/07 13:08:32;;;;;;;8.70;2.28;;;;;;;;;;5053695;28;20049;-59
2024/04/07 13:11:01;;;;;;;11.68;2.60;;;;;;;;;;5059032;28;20515;-57
2024/04/07 13:13:27;;;;;;;9.60;2.97;;;;;;;;;;5054996;28;20439;-59
2024/04/07 13:15:55;;;;;;;11.55;2.45;;;;;;;;;;5058927;28;20048;-59
2024/04/07 13:18:22;;;;;;;9.73;2.42;;;;;;;;;;5059918;28;20053;-57
2024/04/07 13:20:48;;;;;;;8.18;2.40;;;;;;;;;;5059941;28;20447;-59
2024/04/07 13:23:16;;;;;;;8.50;2.17;;;;;;;;;;5056183;28;20050;-59
2024/04/07 13:25:44;;;;;;;9.82;2.13;;;;;;;;;;5053911;28;20530;-57
2024/04/07 13:28:10;;;;;;;9.68;1.90;;;;;;;;;;5055021;28;20060;-59
2024/04/07 13:30:37;;;;;;;11.73;2.63;;;;;;;;;;5058486;28;20481;-59
2024/04/07 13:33:05;;;;;;;11.70;2.58;;;;;;;;;;5058615;28;20040;-59
2024/04/07 13:35:32;;;;;;;12.50;2.95;;;;;;;;;;5053126;28;20476;-58
2024/04/07 13:37:58;;;;;;;8.90;2.10;;;;;;;;;;5059109;28;20048;-58
2024/04/07 13:40:26;;;;;;;7.72;3.50;;;;;;;;;;5053598;28;20519;-58
2024/04/07 13:42:52;;;;;;;11.40;3.17;;;;;;;;;;5055761;28;20045;-59
2024/04/07 13:45:19;;;;;;;8.95;2.00;;;;;;;;;;5056503;28;20416;-57
2024/04/07 13:47:45;;;;;;;7.93;2.10;;;;;;;;;;5060303;28;20052;-59
2024/04/07 13:50:12;;;;;;;10.18;2.20;;;;;;;;;;5053015;28;20045;-59
2024/04/07 13:52:38;;;;;;;11.93;2.20;;;;;;;;;;5052413;28;20060;-59
2024/04/07 13:55:07;;;;;;;11.57;2.50;;;;;;;;;;5050435;28;20049;-58
2024/04/07 13:57:35;;;;;;;8.00;2.35;;;;;;;;;;5058397;28;20436;-59
2024/04/07 14:00:04;;;;;;;10.52;2.17;;;;;;;;;;5045648;28;20103;-59
2024/04/07 14:02:30;;;;;;;11.45;2.65;;;;;;;;;;5057888;28;20140;-58
2024/04/07 14:04:56;;;;;;;10.93;2.30;;;;;;;;;;5059280;28;20141;-59
2024/04/07 14:07:23;;;;;;;8.02;2.08;;;;;;;;;;5060216;28;20049;-60
2024/04/07 14:09:50;;;;;;;9.85;2.83;;;;;;;;;;5057299;28;20516;-59
2024/04/07 14:12:16;;;;;;;10.57;2.65;;;;;;;;;;5054343;28;20071;-60
2024/04/07 14:14:45;;;;;;;12.65;3.08;;;;;;;;;;5060883;28;20048;-54
2024/04/07 14:17:11;;;;;;;9.45;2.40;;;;;;;;;;5055708;28;20432;-57
2024/04/07 14:19:39;;;;;;;9.48;2.97;;;;;;;;;;5054084;28;20063;-58
2024/04/07 14:22:05;;;;;;;12.13;2.70;;;;;;;;;;5058874;28;20115;-59
2024/04/07 14:24:32;;;;;;;10.98;3.72;;;;;;;;;;5057873;28;20083;-59
2024/04/07 14:26:58;;;;;;;10.02;2.30;;;;;;;;;;5059255;28;20048;-60
2024/04/07 14:29:26;;;;;;;10.05;2.40;;;;;;;;;;5058737;28;20059;-59
2024/04/07 14:31:54;;;;;;;14.25;2.72;;;;;;;;;;5059122;28;20072;-60
2024/04/07 14:34:21;;;;;;;14.63;2.53;;;;;;;;;;5059701;28;20094;-60
2024/04/07 14:36:48;;;;;;;9.57;2.10;;;;;;;;;;5053829;28;20051;-60
2024/04/07 14:39:14;;;;;;;9.70;2.47;;;;;;;;;;5059175;28;20072;-60
2024/04/07 14:41:40;;;;;;;12.60;2.65;;;;;;;;;;5057728;28;20056;-58
2024/04/07 14:44:07;;;;;;;9.13;2.40;;;;;;;;;;5054927;28;20416;-59